sensor_id;sensor_type;location;lat;lon;timestamp;P1;durP1;ratioP1;P2;durP2;ratioP2
2201;SDS011;1107;48.654;9.250;2023-06-26T00:00:18;10.30;;;9.70;;
2201;SDS011;1107;48.654;9.250;2023-06-26T00:02:46;10.43;;;9.83;;
2201;SDS011;1107;48.654;9.250;2023-06-26T00:05:13;10.20;;;9.50;;
2201;SDS011;1107;48.654;9.250;2023-06-26T00:07:39;11.73;;;10.53;;
2201;SDS011;1107;48.654;9.250;2023-06-26T00:10:06;10.47;;;9.77;;
2201;SDS011;1107;48.654;9.250;2023-06-26T00:12:35;10.07;;;9.20;;
2201;SDS011;1107;48.654;9.250;2023-06-26T00:15:02;9.93;;;9.40;;
2201;SDS011;1107;48.654;9.250;2023-06-26T00:17:29;10.57;;;9.77;;
2201;SDS011;1107;48.654;9.250;2023-06-26T00:20:02;10.47;;;9.67;;
2201;SDS011;1107;48.654;9.250;2023-06-26T00:22:30;10.67;;;9.97;;
2201;SDS011;1107;48.654;9.250;2023-06-26T00:24:57;11.07;;;10.37;;
2201;SDS011;1107;48.654;9.250;2023-06-26T00:27:24;10.40;;;9.80;;
2201;SDS011;1107;48.654;9.250;2023-06-26T00:29:52;11.13;;;10.47;;
2201;SDS011;1107;48.654;9.250;2023-06-26T00:32:19;11.30;;;10.50;;
2201;SDS011;1107;48.654;9.250;2023-06-26T00:34:46;10.60;;;10.00;;
2201;SDS011;1107;48.654;9.250;2023-06-26T00:37:13;11.80;;;10.97;;
2201;SDS011;1107;48.654;9.250;2023-06-26T00:39:40;9.77;;;9.23;;
2201;SDS011;1107;48.654;9.250;2023-06-26T00:42:07;11.03;;;10.17;;
2201;SDS011;1107;48.654;9.250;2023-06-26T00:44:34;10.60;;;9.83;;
2201;SDS011;1107;48.654;9.250;2023-06-26T00:47:02;11.63;;;10.73;;
2201;SDS011;1107;48.654;9.250;2023-06-26T00:49:29;11.20;;;10.50;;
2201;SDS011;1107;48.654;9.250;2023-06-26T00:51:56;11.77;;;10.97;;
2201;SDS011;1107;48.654;9.250;2023-06-26T00:54:23;11.00;;;10.40;;
2201;SDS011;1107;48.654;9.250;2023-06-26T00:56:50;10.77;;;9.87;;
2201;SDS011;1107;48.654;9.250;2023-06-26T00:59:17;10.97;;;10.33;;
2201;SDS011;1107;48.654;9.250;2023-06-26T01:01:44;11.93;;;11.03;;
2201;SDS011;1107;48.654;9.250;2023-06-26T01:04:12;11.63;;;9.63;;
2201;SDS011;1107;48.654;9.250;2023-06-26T01:06:43;11.13;;;10.40;;
2201;SDS011;1107;48.654;9.250;2023-06-26T01:09:13;10.80;;;10.20;;
2201;SDS011;1107;48.654;9.250;2023-06-26T01:11:42;11.60;;;10.37;;
2201;SDS011;1107;48.654;9.250;2023-06-26T01:14:09;11.93;;;11.03;;
2201;SDS011;1107;48.654;9.250;2023-06-26T01:16:36;11.67;;;10.87;;
2201;SDS011;1107;48.654;9.250;2023-06-26T01:19:05;10.77;;;10.07;;
2201;SDS011;1107;48.654;9.250;2023-06-26T01:21:40;13.33;;;9.57;;
2201;SDS011;1107;48.654;9.250;2023-06-26T01:24:12;10.90;;;10.20;;
2201;SDS011;1107;48.654;9.250;2023-06-26T01:26:47;11.40;;;10.60;;
2201;SDS011;1107;48.654;9.250;2023-06-26T01:29:17;10.70;;;10.00;;
2201;SDS011;1107;48.654;9.250;2023-06-26T01:31:46;10.67;;;9.97;;
2201;SDS011;1107;48.654;9.250;2023-06-26T01:34:14;10.03;;;9.53;;
2201;SDS011;1107;48.654;9.250;2023-06-26T01:36:43;10.20;;;9.63;;
2201;SDS011;1107;48.654;9.250;2023-06-26T01:39:10;11.67;;;10.47;;
2201;SDS011;1107;48.654;9.250;2023-06-26T01:41:37;12.30;;;11.10;;
2201;SDS011;1107;48.654;9.250;2023-06-26T01:44:09;10.73;;;10.07;;
2201;SDS011;1107;48.654;9.250;2023-06-26T01:46:46;10.90;;;10.23;;
2201;SDS011;1107;48.654;9.250;2023-06-26T01:49:21;11.00;;;10.30;;
2201;SDS011;1107;48.654;9.250;2023-06-26T01:51:58;10.50;;;9.80;;
2201;SDS011;1107;48.654;9.250;2023-06-26T01:54:29;10.53;;;9.73;;
2201;SDS011;1107;48.654;9.250;2023-06-26T01:56:59;10.03;;;9.53;;
2201;SDS011;1107;48.654;9.250;2023-06-26T01:59:28;10.40;;;9.87;;
2201;SDS011;1107;48.654;9.250;2023-06-26T02:01:58;11.40;;;10.60;;
2201;SDS011;1107;48.654;9.250;2023-06-26T02:04:27;11.50;;;10.60;;
2201;SDS011;1107;48.654;9.250;2023-06-26T02:06:54;11.00;;;10.27;;
2201;SDS011;1107;48.654;9.250;2023-06-26T02:09:21;11.07;;;10.30;;
2201;SDS011;1107;48.654;9.250;2023-06-26T02:11:48;11.33;;;10.30;;
2201;SDS011;1107;48.654;9.250;2023-06-26T02:14:14;11.47;;;10.60;;
2201;SDS011;1107;48.654;9.250;2023-06-26T02:16:43;11.70;;;10.80;;
2201;SDS011;1107;48.654;9.250;2023-06-26T02:19:10;11.60;;;10.80;;
2201;SDS011;1107;48.654;9.250;2023-06-26T02:21:37;11.40;;;10.60;;
2201;SDS011;1107;48.654;9.250;2023-06-26T02:24:04;11.03;;;10.27;;
2201;SDS011;1107;48.654;9.250;2023-06-26T02:26:31;10.70;;;10.10;;
2201;SDS011;1107;48.654;9.250;2023-06-26T02:28:58;10.60;;;10.00;;
2201;SDS011;1107;48.654;9.250;2023-06-26T02:31:25;10.20;;;9.57;;
2201;SDS011;1107;48.654;9.250;2023-06-26T02:33:53;11.10;;;10.10;;
2201;SDS011;1107;48.654;9.250;2023-06-26T02:36:20;10.93;;;10.13;;
2201;SDS011;1107;48.654;9.250;2023-06-26T02:38:47;10.83;;;10.03;;
2201;SDS011;1107;48.654;9.250;2023-06-26T02:41:14;11.20;;;10.30;;
2201;SDS011;1107;48.654;9.250;2023-06-26T02:43:41;10.53;;;9.83;;
2201;SDS011;1107;48.654;9.250;2023-06-26T02:46:08;10.67;;;10.00;;
2201;SDS011;1107;48.654;9.250;2023-06-26T02:48:35;10.97;;;9.97;;
2201;SDS011;1107;48.654;9.250;2023-06-26T02:51:03;11.20;;;10.40;;
2201;SDS011;1107;48.654;9.250;2023-06-26T02:53:30;10.43;;;9.77;;
2201;SDS011;1107;48.654;9.250;2023-06-26T02:55:57;11.07;;;10.27;;
2201;SDS011;1107;48.654;9.250;2023-06-26T02:58:24;10.77;;;10.13;;
2201;SDS011;1107;48.654;9.250;2023-06-26T03:00:51;11.27;;;10.40;;
2201;SDS011;1107;48.654;9.250;2023-06-26T03:03:18;10.63;;;9.93;;
2201;SDS011;1107;48.654;9.250;2023-06-26T03:05:45;11.40;;;10.50;;
2201;SDS011;1107;48.654;9.250;2023-06-26T03:08:13;11.50;;;10.57;;
2201;SDS011;1107;48.654;9.250;2023-06-26T03:10:41;10.73;;;10.00;;
2201;SDS011;1107;48.654;9.250;2023-06-26T03:13:08;11.03;;;10.30;;
2201;SDS011;1107;48.654;9.250;2023-06-26T03:15:35;11.13;;;10.43;;
2201;SDS011;1107;48.654;9.250;2023-06-26T03:18:02;11.60;;;10.50;;
2201;SDS011;1107;48.654;9.250;2023-06-26T03:20:29;12.10;;;9.93;;
2201;SDS011;1107;48.654;9.250;2023-06-26T03:22:56;11.17;;;10.47;;
2201;SDS011;1107;48.654;9.250;2023-06-26T03:25:24;10.73;;;10.10;;
2201;SDS011;1107;48.654;9.250;2023-06-26T03:27:51;11.93;;;11.13;;
2201;SDS011;1107;48.654;9.250;2023-06-26T03:30:18;11.13;;;10.30;;
2201;SDS011;1107;48.654;9.250;2023-06-26T03:32:45;11.90;;;11.00;;
2201;SDS011;1107;48.654;9.250;2023-06-26T03:35:11;10.77;;;10.17;;
2201;SDS011;1107;48.654;9.250;2023-06-26T03:37:38;11.00;;;10.20;;
2201;SDS011;1107;48.654;9.250;2023-06-26T03:40:06;11.23;;;10.43;;
2201;SDS011;1107;48.654;9.250;2023-06-26T03:42:35;11.47;;;10.67;;
2201;SDS011;1107;48.654;9.250;2023-06-26T03:45:02;11.10;;;10.47;;
2201;SDS011;1107;48.654;9.250;2023-06-26T03:47:29;10.80;;;10.10;;
2201;SDS011;1107;48.654;9.250;2023-06-26T03:49:56;11.50;;;10.70;;
2201;SDS011;1107;48.654;9.250;2023-06-26T03:52:22;11.83;;;11.03;;
2201;SDS011;1107;48.654;9.250;2023-06-26T03:54:49;12.40;;;10.17;;
2201;SDS011;1107;48.654;9.250;2023-06-26T03:57:16;11.33;;;10.27;;
2201;SDS011;1107;48.654;9.250;2023-06-26T03:59:45;10.00;;;9.50;;
2201;SDS011;1107;48.654;9.250;2023-06-26T04:02:11;11.67;;;10.80;;
2201;SDS011;1107;48.654;9.250;2023-06-26T04:04:38;10.90;;;10.23;;
2201;SDS011;1107;48.654;9.250;2023-06-26T04:07:05;11.53;;;10.83;;
2201;SDS011;1107;48.654;9.250;2023-06-26T04:09:32;10.90;;;10.20;;
2201;SDS011;1107;48.654;9.250;2023-06-26T04:11:59;11.97;;;11.00;;
2201;SDS011;1107;48.654;9.250;2023-06-26T04:14:26;11.03;;;10.33;;
2201;SDS011;1107;48.654;9.250;2023-06-26T04:16:54;10.87;;;10.20;;
2201;SDS011;1107;48.654;9.250;2023-06-26T04:19:22;11.67;;;10.67;;
2201;SDS011;1107;48.654;9.250;2023-06-26T04:21:49;12.10;;;11.30;;
2201;SDS011;1107;48.654;9.250;2023-06-26T04:24:16;11.13;;;10.20;;
2201;SDS011;1107;48.654;9.250;2023-06-26T04:26:43;11.73;;;10.73;;
2201;SDS011;1107;48.654;9.250;2023-06-26T04:29:11;10.90;;;10.30;;
2201;SDS011;1107;48.654;9.250;2023-06-26T04:31:38;11.53;;;10.63;;
2201;SDS011;1107;48.654;9.250;2023-06-26T04:34:06;11.57;;;10.77;;
2201;SDS011;1107;48.654;9.250;2023-06-26T04:36:33;11.50;;;10.80;;
2201;SDS011;1107;48.654;9.250;2023-06-26T04:39:03;10.87;;;9.80;;
2201;SDS011;1107;48.654;9.250;2023-06-26T04:41:31;10.93;;;10.10;;
2201;SDS011;1107;48.654;9.250;2023-06-26T04:43:58;11.30;;;10.43;;
2201;SDS011;1107;48.654;9.250;2023-06-26T04:46:25;12.47;;;11.33;;
2201;SDS011;1107;48.654;9.250;2023-06-26T04:48:52;11.70;;;10.90;;
2201;SDS011;1107;48.654;9.250;2023-06-26T04:51:21;10.57;;;9.97;;
2201;SDS011;1107;48.654;9.250;2023-06-26T04:53:48;11.37;;;10.47;;
2201;SDS011;1107;48.654;9.250;2023-06-26T04:56:14;11.33;;;10.53;;
2201;SDS011;1107;48.654;9.250;2023-06-26T04:58:41;12.10;;;11.00;;
2201;SDS011;1107;48.654;9.250;2023-06-26T05:01:08;11.50;;;10.60;;
2201;SDS011;1107;48.654;9.250;2023-06-26T05:03:35;10.37;;;9.70;;
2201;SDS011;1107;48.654;9.250;2023-06-26T05:06:03;11.27;;;9.93;;
2201;SDS011;1107;48.654;9.250;2023-06-26T05:08:31;10.93;;;10.33;;
2201;SDS011;1107;48.654;9.250;2023-06-26T05:10:58;10.10;;;9.50;;
2201;SDS011;1107;48.654;9.250;2023-06-26T05:13:25;11.20;;;10.40;;
2201;SDS011;1107;48.654;9.250;2023-06-26T05:15:52;10.90;;;10.30;;
2201;SDS011;1107;48.654;9.250;2023-06-26T05:18:19;11.30;;;10.23;;
2201;SDS011;1107;48.654;9.250;2023-06-26T05:20:46;11.40;;;10.50;;
2201;SDS011;1107;48.654;9.250;2023-06-26T05:23:14;10.27;;;9.67;;
2201;SDS011;1107;48.654;9.250;2023-06-26T05:25:44;10.83;;;9.93;;
2201;SDS011;1107;48.654;9.250;2023-06-26T05:28:11;9.70;;;8.90;;
2201;SDS011;1107;48.654;9.250;2023-06-26T05:30:40;10.10;;;9.50;;
2201;SDS011;1107;48.654;9.250;2023-06-26T05:33:08;9.70;;;9.00;;
2201;SDS011;1107;48.654;9.250;2023-06-26T05:35:38;10.37;;;9.70;;
2201;SDS011;1107;48.654;9.250;2023-06-26T05:38:05;11.23;;;10.30;;
2201;SDS011;1107;48.654;9.250;2023-06-26T05:40:33;11.27;;;10.57;;
2201;SDS011;1107;48.654;9.250;2023-06-26T05:43:02;10.60;;;9.70;;
2201;SDS011;1107;48.654;9.250;2023-06-26T05:45:29;10.63;;;9.90;;
2201;SDS011;1107;48.654;9.250;2023-06-26T05:47:56;10.13;;;9.43;;
2201;SDS011;1107;48.654;9.250;2023-06-26T05:50:24;10.47;;;9.80;;
2201;SDS011;1107;48.654;9.250;2023-06-26T05:52:51;10.07;;;9.47;;
2201;SDS011;1107;48.654;9.250;2023-06-26T05:55:19;9.40;;;8.90;;
2201;SDS011;1107;48.654;9.250;2023-06-26T05:57:47;10.37;;;9.73;;
2201;SDS011;1107;48.654;9.250;2023-06-26T06:00:18;10.20;;;9.60;;
2201;SDS011;1107;48.654;9.250;2023-06-26T06:02:45;9.73;;;9.07;;
2201;SDS011;1107;48.654;9.250;2023-06-26T06:05:12;10.10;;;9.57;;
2201;SDS011;1107;48.654;9.250;2023-06-26T06:07:39;10.23;;;9.73;;
2201;SDS011;1107;48.654;9.250;2023-06-26T06:10:06;9.63;;;9.20;;
2201;SDS011;1107;48.654;9.250;2023-06-26T06:12:33;10.43;;;9.83;;
2201;SDS011;1107;48.654;9.250;2023-06-26T06:15:00;9.10;;;8.70;;
2201;SDS011;1107;48.654;9.250;2023-06-26T06:17:29;9.60;;;9.20;;
2201;SDS011;1107;48.654;9.250;2023-06-26T06:19:55;10.20;;;9.40;;
2201;SDS011;1107;48.654;9.250;2023-06-26T06:22:22;11.17;;;10.33;;
2201;SDS011;1107;48.654;9.250;2023-06-26T06:24:50;9.03;;;8.60;;
2201;SDS011;1107;48.654;9.250;2023-06-26T06:27:17;11.00;;;9.90;;
2201;SDS011;1107;48.654;9.250;2023-06-26T06:29:44;9.23;;;8.63;;
2201;SDS011;1107;48.654;9.250;2023-06-26T06:32:11;10.50;;;9.90;;
2201;SDS011;1107;48.654;9.250;2023-06-26T06:34:39;10.30;;;9.60;;
2201;SDS011;1107;48.654;9.250;2023-06-26T06:37:06;10.20;;;9.50;;
2201;SDS011;1107;48.654;9.250;2023-06-26T06:39:33;9.40;;;8.90;;
2201;SDS011;1107;48.654;9.250;2023-06-26T06:42:00;9.20;;;8.70;;
2201;SDS011;1107;48.654;9.250;2023-06-26T06:44:27;9.00;;;8.40;;
2201;SDS011;1107;48.654;9.250;2023-06-26T06:46:55;8.57;;;7.50;;
2201;SDS011;1107;48.654;9.250;2023-06-26T06:49:22;9.03;;;8.53;;
2201;SDS011;1107;48.654;9.250;2023-06-26T06:51:50;11.30;;;8.13;;
2201;SDS011;1107;48.654;9.250;2023-06-26T06:54:17;7.80;;;7.40;;
2201;SDS011;1107;48.654;9.250;2023-06-26T06:56:44;8.13;;;7.40;;
2201;SDS011;1107;48.654;9.250;2023-06-26T06:59:11;7.93;;;7.63;;
2201;SDS011;1107;48.654;9.250;2023-06-26T07:01:40;7.70;;;7.37;;
2201;SDS011;1107;48.654;9.250;2023-06-26T07:04:07;8.60;;;8.30;;
2201;SDS011;1107;48.654;9.250;2023-06-26T07:06:33;8.00;;;7.70;;
2201;SDS011;1107;48.654;9.250;2023-06-26T07:09:02;8.80;;;8.30;;
2201;SDS011;1107;48.654;9.250;2023-06-26T07:11:30;9.13;;;8.73;;
2201;SDS011;1107;48.654;9.250;2023-06-26T07:13:57;8.80;;;8.50;;
2201;SDS011;1107;48.654;9.250;2023-06-26T07:16:24;8.03;;;7.67;;
2201;SDS011;1107;48.654;9.250;2023-06-26T07:18:51;8.87;;;7.83;;
2201;SDS011;1107;48.654;9.250;2023-06-26T07:21:19;8.13;;;7.73;;
2201;SDS011;1107;48.654;9.250;2023-06-26T07:23:47;9.07;;;8.47;;
2201;SDS011;1107;48.654;9.250;2023-06-26T07:26:15;7.83;;;7.53;;
2201;SDS011;1107;48.654;9.250;2023-06-26T07:28:42;8.17;;;7.87;;
2201;SDS011;1107;48.654;9.250;2023-06-26T07:31:09;8.17;;;7.77;;
2201;SDS011;1107;48.654;9.250;2023-06-26T07:33:36;7.77;;;7.47;;
2201;SDS011;1107;48.654;9.250;2023-06-26T07:36:03;7.90;;;7.60;;
2201;SDS011;1107;48.654;9.250;2023-06-26T07:38:30;7.60;;;7.30;;
2201;SDS011;1107;48.654;9.250;2023-06-26T07:40:57;7.60;;;7.30;;
2201;SDS011;1107;48.654;9.250;2023-06-26T07:43:26;7.53;;;7.23;;
2201;SDS011;1107;48.654;9.250;2023-06-26T07:45:53;7.33;;;7.03;;
2201;SDS011;1107;48.654;9.250;2023-06-26T07:48:21;8.50;;;8.20;;
2201;SDS011;1107;48.654;9.250;2023-06-26T07:50:48;8.13;;;7.40;;
2201;SDS011;1107;48.654;9.250;2023-06-26T07:53:15;7.60;;;7.30;;
2201;SDS011;1107;48.654;9.250;2023-06-26T07:55:42;8.20;;;7.80;;
2201;SDS011;1107;48.654;9.250;2023-06-26T07:58:09;7.63;;;7.13;;
2201;SDS011;1107;48.654;9.250;2023-06-26T08:00:37;8.17;;;7.77;;
2201;SDS011;1107;48.654;9.250;2023-06-26T08:03:04;6.77;;;6.57;;
2201;SDS011;1107;48.654;9.250;2023-06-26T08:05:31;6.80;;;6.50;;
2201;SDS011;1107;48.654;9.250;2023-06-26T08:07:58;7.00;;;6.70;;
2201;SDS011;1107;48.654;9.250;2023-06-26T08:10:27;7.30;;;6.90;;
2201;SDS011;1107;48.654;9.250;2023-06-26T08:12:54;7.30;;;6.67;;
2201;SDS011;1107;48.654;9.250;2023-06-26T08:15:21;7.40;;;6.93;;
2201;SDS011;1107;48.654;9.250;2023-06-26T08:17:49;7.10;;;6.60;;
2201;SDS011;1107;48.654;9.250;2023-06-26T08:20:16;7.50;;;7.20;;
2201;SDS011;1107;48.654;9.250;2023-06-26T08:22:44;7.40;;;7.00;;
2201;SDS011;1107;48.654;9.250;2023-06-26T08:25:13;7.37;;;7.07;;
2201;SDS011;1107;48.654;9.250;2023-06-26T08:27:40;7.20;;;6.90;;
2201;SDS011;1107;48.654;9.250;2023-06-26T08:30:07;7.47;;;7.07;;
2201;SDS011;1107;48.654;9.250;2023-06-26T08:32:34;7.13;;;6.83;;
2201;SDS011;1107;48.654;9.250;2023-06-26T08:35:03;7.53;;;7.23;;
2201;SDS011;1107;48.654;9.250;2023-06-26T08:37:30;6.77;;;6.57;;
2201;SDS011;1107;48.654;9.250;2023-06-26T08:39:58;7.13;;;6.83;;
2201;SDS011;1107;48.654;9.250;2023-06-26T08:42:25;7.53;;;6.97;;
2201;SDS011;1107;48.654;9.250;2023-06-26T08:44:52;7.50;;;7.20;;
2201;SDS011;1107;48.654;9.250;2023-06-26T08:47:19;7.70;;;7.40;;
2201;SDS011;1107;48.654;9.250;2023-06-26T09:02:08;7.70;;;7.30;;
2201;SDS011;1107;48.654;9.250;2023-06-26T09:04:37;7.80;;;7.50;;
2201;SDS011;1107;48.654;9.250;2023-06-26T09:07:05;7.43;;;7.13;;
2201;SDS011;1107;48.654;9.250;2023-06-26T09:09:33;7.47;;;7.00;;
2201;SDS011;1107;48.654;9.250;2023-06-26T09:12:01;7.10;;;6.90;;
2201;SDS011;1107;48.654;9.250;2023-06-26T09:14:28;8.27;;;7.77;;
2201;SDS011;1107;48.654;9.250;2023-06-26T09:16:55;6.97;;;6.57;;
2201;SDS011;1107;48.654;9.250;2023-06-26T09:19:23;8.77;;;7.57;;
2201;SDS011;1107;48.654;9.250;2023-06-26T09:21:50;8.03;;;7.70;;
2201;SDS011;1107;48.654;9.250;2023-06-26T09:24:17;7.23;;;6.93;;
2201;SDS011;1107;48.654;9.250;2023-06-26T09:26:46;7.93;;;7.63;;
2201;SDS011;1107;48.654;9.250;2023-06-26T09:29:13;7.90;;;7.60;;
2201;SDS011;1107;48.654;9.250;2023-06-26T09:31:41;7.43;;;7.13;;
2201;SDS011;1107;48.654;9.250;2023-06-26T09:34:08;7.07;;;6.77;;
2201;SDS011;1107;48.654;9.250;2023-06-26T09:36:35;7.37;;;7.07;;
2201;SDS011;1107;48.654;9.250;2023-06-26T09:39:03;7.57;;;7.27;;
2201;SDS011;1107;48.654;9.250;2023-06-26T09:41:35;7.70;;;7.40;;
2201;SDS011;1107;48.654;9.250;2023-06-26T09:44:05;7.57;;;7.23;;
2201;SDS011;1107;48.654;9.250;2023-06-26T09:46:32;7.23;;;6.93;;
2201;SDS011;1107;48.654;9.250;2023-06-26T09:49:01;7.10;;;6.80;;
2201;SDS011;1107;48.654;9.250;2023-06-26T09:51:30;7.47;;;7.17;;
2201;SDS011;1107;48.654;9.250;2023-06-26T09:53:57;6.63;;;6.17;;
2201;SDS011;1107;48.654;9.250;2023-06-26T09:58:52;6.87;;;6.63;;
2201;SDS011;1107;48.654;9.250;2023-06-26T10:01:22;6.73;;;6.47;;
2201;SDS011;1107;48.654;9.250;2023-06-26T10:03:50;7.37;;;7.07;;
2201;SDS011;1107;48.654;9.250;2023-06-26T10:06:17;7.37;;;6.97;;
2201;SDS011;1107;48.654;9.250;2023-06-26T10:08:48;9.80;;;7.00;;
2201;SDS011;1107;48.654;9.250;2023-06-26T10:18:46;7.10;;;6.80;;
2201;SDS011;1107;48.654;9.250;2023-06-26T10:21:15;11.43;;;6.90;;
2201;SDS011;1107;48.654;9.250;2023-06-26T10:23:42;7.93;;;7.23;;
2201;SDS011;1107;48.654;9.250;2023-06-26T10:26:11;8.03;;;7.60;;
2201;SDS011;1107;48.654;9.250;2023-06-26T10:28:39;7.33;;;7.03;;
2201;SDS011;1107;48.654;9.250;2023-06-26T10:31:08;7.97;;;7.47;;
2201;SDS011;1107;48.654;9.250;2023-06-26T10:33:36;8.10;;;7.60;;
2201;SDS011;1107;48.654;9.250;2023-06-26T10:36:15;7.80;;;7.50;;
2201;SDS011;1107;48.654;9.250;2023-06-26T10:41:19;7.77;;;7.37;;
2201;SDS011;1107;48.654;9.250;2023-06-26T10:43:49;7.27;;;6.87;;
2201;SDS011;1107;48.654;9.250;2023-06-26T10:46:17;7.30;;;6.80;;
2201;SDS011;1107;48.654;9.250;2023-06-26T10:48:57;7.93;;;7.20;;
2201;SDS011;1107;48.654;9.250;2023-06-26T10:51:27;8.20;;;7.90;;
2201;SDS011;1107;48.654;9.250;2023-06-26T10:53:54;8.70;;;7.87;;
2201;SDS011;1107;48.654;9.250;2023-06-26T10:56:40;8.00;;;7.63;;
2201;SDS011;1107;48.654;9.250;2023-06-26T10:59:13;8.10;;;7.70;;
2201;SDS011;1107;48.654;9.250;2023-06-26T11:01:42;8.77;;;8.37;;
2201;SDS011;1107;48.654;9.250;2023-06-26T11:04:10;8.00;;;7.70;;
2201;SDS011;1107;48.654;9.250;2023-06-26T11:06:40;8.00;;;7.60;;
2201;SDS011;1107;48.654;9.250;2023-06-26T11:09:09;8.77;;;8.27;;
2201;SDS011;1107;48.654;9.250;2023-06-26T11:11:56;8.70;;;8.40;;
2201;SDS011;1107;48.654;9.250;2023-06-26T11:14:29;10.37;;;9.03;;
2201;SDS011;1107;48.654;9.250;2023-06-26T11:16:57;9.10;;;8.50;;
2201;SDS011;1107;48.654;9.250;2023-06-26T11:19:25;9.30;;;8.80;;
2201;SDS011;1107;48.654;9.250;2023-06-26T11:22:03;34.37;;;8.67;;
2201;SDS011;1107;48.654;9.250;2023-06-26T11:24:30;9.10;;;8.70;;
2201;SDS011;1107;48.654;9.250;2023-06-26T11:27:01;9.63;;;8.70;;
2201;SDS011;1107;48.654;9.250;2023-06-26T11:29:29;9.00;;;8.60;;
2201;SDS011;1107;48.654;9.250;2023-06-26T11:31:58;9.07;;;8.77;;
2201;SDS011;1107;48.654;9.250;2023-06-26T11:34:29;9.57;;;9.17;;
2201;SDS011;1107;48.654;9.250;2023-06-26T11:36:57;9.67;;;8.73;;
2201;SDS011;1107;48.654;9.250;2023-06-26T11:39:27;8.83;;;8.43;;
2201;SDS011;1107;48.654;9.250;2023-06-26T11:41:54;9.00;;;8.57;;
2201;SDS011;1107;48.654;9.250;2023-06-26T11:44:21;8.67;;;8.17;;
2201;SDS011;1107;48.654;9.250;2023-06-26T11:46:51;8.40;;;8.07;;
2201;SDS011;1107;48.654;9.250;2023-06-26T11:49:20;9.13;;;8.80;;
2201;SDS011;1107;48.654;9.250;2023-06-26T11:51:48;8.73;;;7.90;;
2201;SDS011;1107;48.654;9.250;2023-06-26T11:54:15;9.13;;;8.53;;
2201;SDS011;1107;48.654;9.250;2023-06-26T11:56:53;8.10;;;7.80;;
2201;SDS011;1107;48.654;9.250;2023-06-26T11:59:22;8.97;;;8.40;;
2201;SDS011;1107;48.654;9.250;2023-06-26T12:01:57;9.87;;;9.27;;
2201;SDS011;1107;48.654;9.250;2023-06-26T12:04:24;8.40;;;7.80;;
2201;SDS011;1107;48.654;9.250;2023-06-26T12:06:52;9.33;;;8.93;;
2201;SDS011;1107;48.654;9.250;2023-06-26T12:09:22;9.57;;;9.17;;
2201;SDS011;1107;48.654;9.250;2023-06-26T12:11:51;8.50;;;8.00;;
2201;SDS011;1107;48.654;9.250;2023-06-26T12:14:22;9.77;;;9.27;;
2201;SDS011;1107;48.654;9.250;2023-06-26T12:16:53;8.90;;;8.60;;
2201;SDS011;1107;48.654;9.250;2023-06-26T12:19:24;9.83;;;9.23;;
2201;SDS011;1107;48.654;9.250;2023-06-26T12:21:52;9.63;;;8.80;;
2201;SDS011;1107;48.654;9.250;2023-06-26T12:24:22;9.13;;;8.70;;
2201;SDS011;1107;48.654;9.250;2023-06-26T12:26:50;8.43;;;8.13;;
2201;SDS011;1107;48.654;9.250;2023-06-26T12:29:28;9.17;;;8.63;;
2201;SDS011;1107;48.654;9.250;2023-06-26T12:31:57;9.47;;;8.87;;
2201;SDS011;1107;48.654;9.250;2023-06-26T12:34:26;9.90;;;9.40;;
2201;SDS011;1107;48.654;9.250;2023-06-26T12:36:58;8.87;;;8.57;;
2201;SDS011;1107;48.654;9.250;2023-06-26T12:39:26;8.70;;;8.30;;
2201;SDS011;1107;48.654;9.250;2023-06-26T12:41:54;8.43;;;8.03;;
2201;SDS011;1107;48.654;9.250;2023-06-26T12:44:26;24.97;;;9.10;;
2201;SDS011;1107;48.654;9.250;2023-06-26T12:46:54;8.77;;;8.30;;
2201;SDS011;1107;48.654;9.250;2023-06-26T12:49:29;8.50;;;8.00;;
2201;SDS011;1107;48.654;9.250;2023-06-26T12:51:58;8.57;;;8.20;;
2201;SDS011;1107;48.654;9.250;2023-06-26T12:54:26;17.03;;;7.73;;
2201;SDS011;1107;48.654;9.250;2023-06-26T12:56:53;8.27;;;7.70;;
2201;SDS011;1107;48.654;9.250;2023-06-26T12:59:20;9.00;;;8.63;;
2201;SDS011;1107;48.654;9.250;2023-06-26T13:01:48;9.30;;;8.80;;
2201;SDS011;1107;48.654;9.250;2023-06-26T13:04:16;10.20;;;8.33;;
2201;SDS011;1107;48.654;9.250;2023-06-26T13:06:43;8.10;;;7.80;;
2201;SDS011;1107;48.654;9.250;2023-06-26T13:09:10;9.00;;;8.60;;
2201;SDS011;1107;48.654;9.250;2023-06-26T13:11:37;8.47;;;8.07;;
2201;SDS011;1107;48.654;9.250;2023-06-26T13:14:04;8.80;;;8.40;;
2201;SDS011;1107;48.654;9.250;2023-06-26T13:16:31;8.33;;;8.03;;
2201;SDS011;1107;48.654;9.250;2023-06-26T13:18:59;8.37;;;8.07;;
2201;SDS011;1107;48.654;9.250;2023-06-26T13:21:27;8.17;;;7.70;;
2201;SDS011;1107;48.654;9.250;2023-06-26T13:23:54;8.53;;;8.13;;
2201;SDS011;1107;48.654;9.250;2023-06-26T13:26:22;8.37;;;8.07;;
2201;SDS011;1107;48.654;9.250;2023-06-26T13:28:50;9.07;;;8.10;;
2201;SDS011;1107;48.654;9.250;2023-06-26T13:31:17;8.80;;;8.03;;
2201;SDS011;1107;48.654;9.250;2023-06-26T13:33:44;8.63;;;8.20;;
2201;SDS011;1107;48.654;9.250;2023-06-26T13:36:15;8.67;;;8.20;;
2201;SDS011;1107;48.654;9.250;2023-06-26T13:38:42;8.97;;;8.10;;
2201;SDS011;1107;48.654;9.250;2023-06-26T13:41:09;8.47;;;7.97;;
2201;SDS011;1107;48.654;9.250;2023-06-26T13:43:36;8.47;;;7.87;;
2201;SDS011;1107;48.654;9.250;2023-06-26T13:46:03;7.93;;;7.63;;
2201;SDS011;1107;48.654;9.250;2023-06-26T13:48:30;8.23;;;7.83;;
2201;SDS011;1107;48.654;9.250;2023-06-26T13:50:58;8.60;;;8.20;;
2201;SDS011;1107;48.654;9.250;2023-06-26T13:53:28;8.90;;;8.20;;
2201;SDS011;1107;48.654;9.250;2023-06-26T13:55:55;9.03;;;8.20;;
2201;SDS011;1107;48.654;9.250;2023-06-26T13:58:22;8.20;;;7.90;;
2201;SDS011;1107;48.654;9.250;2023-06-26T14:00:51;8.17;;;7.77;;
2201;SDS011;1107;48.654;9.250;2023-06-26T14:03:18;7.63;;;7.33;;
2201;SDS011;1107;48.654;9.250;2023-06-26T14:05:45;7.97;;;7.57;;
2201;SDS011;1107;48.654;9.250;2023-06-26T14:08:12;7.97;;;7.57;;
2201;SDS011;1107;48.654;9.250;2023-06-26T14:10:41;7.90;;;7.27;;
2201;SDS011;1107;48.654;9.250;2023-06-26T14:13:08;7.37;;;7.07;;
2201;SDS011;1107;48.654;9.250;2023-06-26T14:15:36;8.20;;;7.70;;
2201;SDS011;1107;48.654;9.250;2023-06-26T14:18:05;7.57;;;7.20;;
2201;SDS011;1107;48.654;9.250;2023-06-26T14:20:32;7.20;;;6.77;;
2201;SDS011;1107;48.654;9.250;2023-06-26T14:23:01;7.87;;;7.47;;
2201;SDS011;1107;48.654;9.250;2023-06-26T14:25:28;7.90;;;7.40;;
2201;SDS011;1107;48.654;9.250;2023-06-26T14:27:57;7.37;;;7.07;;
2201;SDS011;1107;48.654;9.250;2023-06-26T14:30:24;7.63;;;7.13;;
2201;SDS011;1107;48.654;9.250;2023-06-26T14:32:51;7.60;;;7.30;;
2201;SDS011;1107;48.654;9.250;2023-06-26T14:35:18;7.70;;;7.30;;
2201;SDS011;1107;48.654;9.250;2023-06-26T14:37:47;10.83;;;6.87;;
2201;SDS011;1107;48.654;9.250;2023-06-26T14:40:15;7.80;;;7.37;;
2201;SDS011;1107;48.654;9.250;2023-06-26T14:42:42;8.13;;;7.40;;
2201;SDS011;1107;48.654;9.250;2023-06-26T14:45:12;8.03;;;6.87;;
2201;SDS011;1107;48.654;9.250;2023-06-26T14:47:38;6.67;;;6.37;;
2201;SDS011;1107;48.654;9.250;2023-06-26T14:50:06;6.90;;;6.37;;
2201;SDS011;1107;48.654;9.250;2023-06-26T14:52:34;6.83;;;6.53;;
2201;SDS011;1107;48.654;9.250;2023-06-26T14:55:01;6.50;;;6.20;;
2201;SDS011;1107;48.654;9.250;2023-06-26T14:57:28;6.63;;;6.33;;
2201;SDS011;1107;48.654;9.250;2023-06-26T14:59:55;6.40;;;6.10;;
2201;SDS011;1107;48.654;9.250;2023-06-26T15:02:24;6.07;;;5.77;;
2201;SDS011;1107;48.654;9.250;2023-06-26T15:04:51;6.00;;;5.80;;
2201;SDS011;1107;48.654;9.250;2023-06-26T15:07:17;6.40;;;6.00;;
2201;SDS011;1107;48.654;9.250;2023-06-26T15:09:44;6.03;;;5.70;;
2201;SDS011;1107;48.654;9.250;2023-06-26T15:12:11;5.90;;;5.50;;
2201;SDS011;1107;48.654;9.250;2023-06-26T15:14:38;5.17;;;4.93;;
2201;SDS011;1107;48.654;9.250;2023-06-26T15:17:05;4.90;;;4.70;;
2201;SDS011;1107;48.654;9.250;2023-06-26T15:19:34;4.90;;;4.70;;
2201;SDS011;1107;48.654;9.250;2023-06-26T15:22:03;5.03;;;4.83;;
2201;SDS011;1107;48.654;9.250;2023-06-26T15:24:30;4.87;;;4.67;;
2201;SDS011;1107;48.654;9.250;2023-06-26T15:26:57;5.30;;;5.10;;
2201;SDS011;1107;48.654;9.250;2023-06-26T15:29:24;5.20;;;4.90;;
2201;SDS011;1107;48.654;9.250;2023-06-26T15:31:51;5.47;;;4.63;;
2201;SDS011;1107;48.654;9.250;2023-06-26T15:34:18;5.37;;;4.77;;